Time;durP1;ratioP1;P1;durP2;ratioP2;P2;SDS_P1;SDS_P2;PMS_P1;PMS_P2;Temp;Humidity;BMP_temperature;BMP_pressure;BME280_temperature;BME280_humidity;BME280_pressure;Samples;Min_cycle;Max_cycle;Signal;HPM_P1;HPM_P2
2024/01/27 00:00:09;;;;;;;4.73;1.07;;;5.20;99.90;5.10;101623.00;;;;4909778;28;87936;-73
2024/01/27 00:02:35;;;;;;;5.13;1.47;;;5.20;99.90;5.00;101631.00;;;;4897270;28;87846;-71
2024/01/27 00:05:02;;;;;;;2.97;1.10;;;5.20;99.90;5.10;101623.00;;;;4891079;28;88925;-70
2024/01/27 00:07:28;;;;;;;5.63;1.13;;;5.20;99.90;5.10;101608.00;;;;4896951;28;87825;-71
2024/01/27 00:09:55;;;;;;;1.43;1.00;;;5.20;99.90;5.10;101627.00;;;;4899009;28;87707;-70
2024/01/27 00:12:21;;;;;;;3.53;1.77;;;6.00;99.90;5.10;101618.00;;;;4897903;28;87752;-71
2024/01/27 00:14:46;;;;;;;2.77;0.97;;;5.30;99.90;5.10;101626.00;;;;4895261;28;100151;-73
2024/01/27 00:17:12;;;;;;;3.70;1.43;;;6.20;99.90;5.00;101628.00;;;;4900398;28;106750;-71
2024/01/27 00:19:37;;;;;;;5.73;0.97;;;4.60;99.90;5.00;101642.00;;;;4896944;28;118766;-71
2024/01/27 00:22:03;;;;;;;0.67;0.57;;;4.60;99.90;5.00;101630.00;;;;4898991;28;109148;-70
2024/01/27 00:24:29;;;;;;;5.37;1.17;;;5.20;99.90;5.00;101640.00;;;;4901015;28;88103;-70
2024/01/27 00:26:55;;;;;;;1.53;0.80;;;5.70;99.90;5.00;101652.00;;;;4900928;28;116385;-69
2024/01/27 00:29:21;;;;;;;7.50;1.47;;;5.20;99.90;5.00;101638.00;;;;4899179;28;104323;-70
2024/01/27 00:31:49;;;;;;;6.70;1.47;;;5.10;99.90;5.00;101653.00;;;;4895622;28;110578;-73
2024/01/27 00:34:14;;;;;;;3.90;0.60;;;5.70;99.90;5.00;101648.00;;;;4898569;28;87808;-70
2024/01/27 00:36:42;;;;;;;5.33;1.67;;;5.20;99.90;5.00;101658.00;;;;4898261;28;101074;-70
2024/01/27 00:39:08;;;;;;;2.20;1.00;;;6.10;99.90;5.00;101675.00;;;;4894782;28;88697;-72
2024/01/27 00:41:34;;;;;;;0.73;0.73;;;6.20;99.90;5.00;101683.00;;;;4898542;28;88559;-70
2024/01/27 00:43:59;;;;;;;7.57;1.83;;;5.20;99.90;5.00;101676.00;;;;4900745;28;109358;-71
2024/01/27 00:46:25;;;;;;;3.60;0.93;;;5.10;99.90;5.00;101675.00;;;;4899570;28;115550;-70
2024/01/27 00:48:50;;;;;;;3.03;1.43;;;5.20;99.90;5.00;101684.00;;;;4901349;28;117996;-69
2024/01/27 00:51:16;;;;;;;1.63;0.70;;;5.20;99.90;5.10;101686.00;;;;4900200;28;109940;-71
2024/01/27 00:53:42;;;;;;;5.93;1.10;;;5.20;99.90;5.10;101675.00;;;;4897962;28;88889;-70
2024/01/27 00:56:07;;;;;;;3.10;1.00;;;5.30;99.90;5.10;101693.00;;;;4897986;28;117501;-70
2024/01/27 00:58:34;;;;;;;2.53;0.70;;;5.40;99.90;5.10;101691.00;;;;4901685;28;118500;-71
2024/01/27 01:01:00;;;;;;;5.43;1.00;;;5.70;99.90;5.10;101704.00;;;;4898011;28;87897;-70
2024/01/27 01:03:25;;;;;;;2.87;0.80;;;5.20;99.90;5.10;101706.00;;;;4901274;28;109264;-70
2024/01/27 01:05:51;;;;;;;1.97;0.50;;;5.80;99.90;5.10;101699.00;;;;4898815;28;104352;-70
2024/01/27 01:08:16;;;;;;;9.00;1.97;;;6.00;99.90;5.10;101704.00;;;;4902037;28;117312;-70
2024/01/27 01:10:42;;;;;;;8.67;1.57;;;6.20;99.90;5.20;101712.00;;;;4903417;28;109693;-69
2024/01/27 01:13:08;;;;;;;5.40;1.00;;;6.20;99.90;5.20;101711.00;;;;4899000;28;107774;-72
2024/01/27 01:15:33;;;;;;;1.13;0.67;;;5.70;99.90;5.10;101711.00;;;;4897751;28;117449;-69
2024/01/27 01:17:59;;;;;;;5.23;1.57;;;5.70;99.90;5.20;101715.00;;;;4902065;28;116077;-70
2024/01/27 01:20:26;;;;;;;1.63;0.93;;;5.20;99.90;5.10;101711.00;;;;4898351;28;87815;-71
2024/01/27 01:22:52;;;;;;;2.63;0.90;;;5.30;99.90;5.10;101714.00;;;;4898630;28;88109;-69
2024/01/27 01:25:18;;;;;;;0.77;0.70;;;6.10;99.90;5.10;101710.00;;;;4893415;28;106977;-71
2024/01/27 01:27:46;;;;;;;1.17;1.03;;;6.10;99.90;5.10;101715.00;;;;4895423;28;88960;-72
2024/01/27 01:30:12;;;;;;;6.00;1.57;;;6.00;99.90;5.00;101698.00;;;;4899374;28;89945;-70
2024/01/27 01:32:37;;;;;;;8.80;1.57;;;5.20;99.90;5.00;101711.00;;;;4913923;28;93406;-70
2024/01/27 01:35:04;;;;;;;1.87;1.07;;;5.50;99.90;5.00;101723.00;;;;4900105;28;117210;-69
2024/01/27 01:37:29;;;;;;;5.63;1.10;;;5.30;99.90;5.00;101714.00;;;;4908787;28;103003;-70
2024/01/27 01:39:55;;;;;;;2.37;1.17;;;5.70;99.90;5.00;101706.00;;;;4900223;28;87667;-72
2024/01/27 01:42:24;;;;;;;2.80;1.43;;;5.20;99.90;5.00;101712.00;;;;4903441;28;109320;-72
2024/01/27 01:44:51;;;;;;;2.37;1.23;;;5.50;99.90;5.00;101710.00;;;;4904606;28;88602;-71
2024/01/27 01:47:17;;;;;;;2.33;1.07;;;5.30;99.90;4.90;101712.00;;;;4898685;28;99276;-71
2024/01/27 01:49:43;;;;;;;3.00;1.33;;;5.80;99.90;4.90;101705.00;;;;4903391;28;87800;-72
2024/01/27 01:52:09;;;;;;;1.47;1.07;;;5.20;99.90;4.90;101712.00;;;;4898910;28;89524;-69
2024/01/27 01:54:35;;;;;;;7.50;1.23;;;5.20;99.90;4.80;101719.00;;;;4898728;28;107395;-70
2024/01/27 01:57:02;;;;;;;1.33;0.77;;;5.90;99.90;4.80;101716.00;;;;4897864;28;117840;-70
2024/01/27 01:59:27;;;;;;;1.23;1.00;;;5.00;99.90;4.80;101715.00;;;;4878267;28;104623;-69
2024/01/27 02:01:53;;;;;;;2.80;1.00;;;4.90;99.90;4.70;101713.00;;;;4900007;28;108247;-69
2024/01/27 02:04:19;;;;;;;2.83;0.90;;;4.80;99.90;4.80;101716.00;;;;4897612;28;117805;-69
2024/01/27 02:06:44;;;;;;;1.23;0.93;;;4.90;99.90;4.80;101720.00;;;;4903395;28;118516;-70
2024/01/27 02:09:10;;;;;;;2.27;1.17;;;5.70;99.90;4.80;101726.00;;;;4898981;28;111115;-70
2024/01/27 02:11:35;;;;;;;5.40;1.23;;;5.50;99.90;4.80;101720.00;;;;4899258;28;107400;-69
2024/01/27 02:14:01;;;;;;;1.27;0.97;;;5.10;99.90;4.70;101727.00;;;;4904525;28;118063;-70
2024/01/27 02:16:27;;;;;;;9.90;0.90;;;5.90;99.90;4.70;101723.00;;;;4911281;28;117200;-71
2024/01/27 02:18:53;;;;;;;4.37;1.47;;;5.00;99.90;4.70;101729.00;;;;4896172;28;107939;-69
2024/01/27 02:21:18;;;;;;;3.93;0.93;;;5.80;99.90;4.70;101738.00;;;;4901067;28;88844;-70
2024/01/27 02:23:44;;;;;;;1.10;0.80;;;4.90;99.90;4.70;101735.00;;;;4899526;28;88253;-70
2024/01/27 02:26:10;;;;;;;5.63;1.23;;;4.90;99.90;4.80;101735.00;;;;4890030;28;102347;-70
2024/01/27 02:28:35;;;;;;;6.23;1.27;;;4.90;99.90;4.80;101748.00;;;;4898928;28;109411;-69
2024/01/27 02:31:01;;;;;;;3.17;1.00;;;4.90;99.90;4.80;101739.00;;;;4898946;28;89028;-71
2024/01/27 02:33:27;;;;;;;4.10;1.00;;;5.90;99.90;4.80;101744.00;;;;4897682;28;89468;-71
2024/01/27 02:35:53;;;;;;;2.20;1.17;;;5.00;99.90;4.80;101755.00;;;;4895880;28;97126;-69
2024/01/27 02:38:19;;;;;;;2.93;1.13;;;4.90;99.90;4.80;101748.00;;;;4896504;28;109282;-71
2024/01/27 02:40:44;;;;;;;4.37;1.00;;;5.00;99.90;4.80;101748.00;;;;4895179;28;108996;-71
2024/01/27 02:43:10;;;;;;;5.03;1.87;;;5.90;99.90;4.80;101737.00;;;;4896305;28;116428;-71
2024/01/27 02:45:36;;;;;;;5.07;1.23;;;5.00;99.90;4.70;101745.00;;;;4897393;28;116881;-70
2024/01/27 02:48:01;;;;;;;5.53;1.63;;;4.90;99.90;4.70;101754.00;;;;4899718;28;86894;-69
2024/01/27 02:50:27;;;;;;;1.33;0.77;;;4.90;99.90;4.70;101750.00;;;;4896915;28;108123;-68
2024/01/27 02:52:53;;;;;;;2.10;1.20;;;5.50;99.90;4.60;101750.00;;;;4900275;28;117703;-70
2024/01/27 02:55:18;;;;;;;6.83;1.27;;;4.80;99.90;4.60;101754.00;;;;4898714;28;118822;-69
2024/01/27 02:57:44;;;;;;;3.80;1.13;;;4.80;99.90;4.60;101754.00;;;;4908388;28;92797;-69
2024/01/27 03:00:10;;;;;;;2.67;1.40;;;4.80;99.90;4.60;101746.00;;;;4910542;28;107294;-69
2024/01/27 03:02:36;;;;;;;7.20;1.63;;;4.80;99.90;4.60;101749.00;;;;4901155;28;103054;-69
2024/01/27 03:05:02;;;;;;;3.70;1.77;;;4.80;99.90;4.50;101745.00;;;;4898404;28;117568;-69
2024/01/27 03:07:27;;;;;;;2.73;1.33;;;4.70;99.90;4.50;101748.00;;;;4899344;28;109012;-70
2024/01/27 03:09:53;;;;;;;6.30;2.03;;;5.50;99.90;4.40;101744.00;;;;4908528;28;109005;-70
2024/01/27 03:12:19;;;;;;;5.43;1.33;;;5.60;99.90;4.40;101754.00;;;;4895193;28;117025;-70
2024/01/27 03:14:46;;;;;;;3.00;1.23;;;4.50;99.90;4.30;101758.00;;;;4898496;28;88254;-70
2024/01/27 03:17:11;;;;;;;1.30;1.00;;;4.50;99.90;4.30;101749.00;;;;4898350;28;88905;-68
2024/01/27 03:19:37;;;;;;;5.83;2.47;;;4.50;99.90;4.30;101750.00;;;;4898731;28;108115;-69
2024/01/27 03:22:03;;;;;;;5.10;1.23;;;4.50;99.90;4.20;101753.00;;;;4897439;28;117939;-72
2024/01/27 03:24:28;;;;;;;3.40;1.43;;;4.50;99.90;4.20;101754.00;;;;4898529;28;88862;-70
2024/01/27 03:26:54;;;;;;;3.30;1.33;;;4.40;99.90;4.20;101748.00;;;;4897547;28;110110;-70
2024/01/27 03:29:20;;;;;;;1.67;1.40;;;4.40;99.90;4.20;101737.00;;;;4898278;28;107047;-70
2024/01/27 03:31:45;;;;;;;3.80;1.60;;;5.10;99.90;4.30;101747.00;;;;4894446;28;117822;-71
2024/01/27 03:34:11;;;;;;;3.00;1.47;;;4.40;99.90;4.30;101744.00;;;;4898609;28;87938;-70
2024/01/27 03:36:37;;;;;;;2.10;1.30;;;5.40;99.90;4.30;101755.00;;;;4900328;28;92576;-68
2024/01/27 03:39:03;;;;;;;3.53;1.30;;;4.40;99.90;4.30;101760.00;;;;4897141;28;108052;-70
2024/01/27 03:41:29;;;;;;;1.17;1.03;;;4.60;99.90;4.30;101761.00;;;;4896595;28;89089;-69
2024/01/27 03:43:54;;;;;;;4.40;1.77;;;4.40;99.90;4.30;101774.00;;;;4894817;28;117441;-71
2024/01/27 03:46:20;;;;;;;5.70;1.57;;;5.40;99.90;4.30;101767.00;;;;4899075;28;109271;-69
2024/01/27 03:48:45;;;;;;;2.73;0.93;;;4.50;99.90;4.30;101777.00;;;;4899258;28;108839;-69
2024/01/27 03:51:12;;;;;;;2.87;1.00;;;4.60;99.90;4.40;101773.00;;;;4896074;28;117864;-71
2024/01/27 03:53:38;;;;;;;6.87;1.60;;;4.60;99.90;4.40;101771.00;;;;4899931;28;89308;-70
2024/01/27 03:56:04;;;;;;;3.00;1.10;;;4.60;99.90;4.40;101771.00;;;;4899879;28;88109;-70
2024/01/27 03:58:31;;;;;;;5.53;1.30;;;4.60;99.90;4.40;101768.00;;;;4898918;28;87915;-72
2024/01/27 04:00:57;;;;;;;2.10;1.10;;;5.40;99.90;4.40;101766.00;;;;4897087;28;88260;-71
2024/01/27 04:03:23;;;;;;;3.30;1.27;;;4.60;99.90;4.40;101784.00;;;;4895441;28;88192;-69
2024/01/27 04:05:49;;;;;;;5.00;1.40;;;5.10;99.90;4.50;101783.00;;;;4897198;28;88199;-70
2024/01/27 04:08:14;;;;;;;1.70;1.40;;;4.70;99.90;4.50;101786.00;;;;4895102;28;88915;-71
2024/01/27 04:10:40;;;;;;;1.10;0.70;;;4.70;99.90;4.50;101790.00;;;;4898763;28;88143;-69
2024/01/27 04:13:06;;;;;;;6.13;1.47;;;4.80;99.90;4.50;101786.00;;;;4895034;28;116812;-69
2024/01/27 04:15:38;;;;;;;4.00;1.63;;;5.50;99.90;4.50;101788.00;;;;4898191;28;111595;-71
2024/01/27 04:18:07;;;;;;;14.27;2.07;;;5.60;99.90;4.60;101799.00;;;;4912740;28;88229;-69
2024/01/27 04:20:33;;;;;;;3.10;1.40;;;4.70;99.90;4.50;101795.00;;;;4901014;28;88276;-69
2024/01/27 04:22:59;;;;;;;2.30;1.00;;;4.70;99.90;4.50;101806.00;;;;4895882;28;109225;-69
2024/01/27 04:25:24;;;;;;;5.03;1.33;;;5.50;99.90;4.60;101801.00;;;;4902277;28;110413;-70
2024/01/27 04:27:50;;;;;;;2.20;1.07;;;4.70;99.90;4.60;101804.00;;;;4901311;28;108219;-71
2024/01/27 04:30:16;;;;;;;5.20;1.40;;;4.80;99.90;4.60;101805.00;;;;4897552;28;99176;-69
2024/01/27 04:32:41;;;;;;;4.00;0.97;;;4.80;99.90;4.60;101810.00;;;;4899416;28;89012;-72
2024/01/27 04:35:11;;;;;;;1.43;1.03;;;5.30;99.90;4.60;101820.00;;;;4900928;28;100312;-69
2024/01/27 04:37:38;;;;;;;3.67;1.10;;;4.80;99.90;4.60;101812.00;;;;4902126;28;87802;-72
2024/01/27 04:40:07;;;;;;;4.63;1.17;;;4.80;99.90;4.60;101805.00;;;;4899342;28;88516;-69
2024/01/27 04:42:38;;;;;;;4.73;1.23;;;4.80;99.90;4.60;101824.00;;;;4899776;28;89048;-69
2024/01/27 04:45:06;;;;;;;0.97;0.87;;;4.80;99.90;4.60;101818.00;;;;4890948;28;87844;-70
2024/01/27 04:47:34;;;;;;;6.40;1.10;;;4.80;99.90;4.60;101831.00;;;;4904150;28;88303;-69
2024/01/27 04:50:00;;;;;;;3.83;1.00;;;4.80;99.90;4.60;101826.00;;;;4899752;28;117245;-72
2024/01/27 04:52:26;;;;;;;4.23;1.30;;;5.60;99.90;4.60;101826.00;;;;4900509;28;115924;-71
2024/01/27 04:54:52;;;;;;;0.63;0.63;;;4.80;99.90;4.60;101828.00;;;;4903344;28;108836;-72
2024/01/27 04:57:17;;;;;;;10.43;1.87;;;4.80;99.90;4.60;101850.00;;;;4902191;28;89740;-69
2024/01/27 04:59:43;;;;;;;6.03;1.37;;;4.80;99.90;4.60;101851.00;;;;4898898;28;116235;-69
2024/01/27 05:02:09;;;;;;;2.33;0.63;;;4.80;99.90;4.60;101853.00;;;;4899077;28;116400;-69
2024/01/27 05:04:34;;;;;;;4.53;1.50;;;5.80;99.90;4.60;101848.00;;;;4900961;28;109655;-71
2024/01/27 05:07:00;;;;;;;2.27;1.40;;;4.80;99.90;4.60;101851.00;;;;4900906;28;108965;-69
2024/01/27 05:09:25;;;;;;;2.90;1.27;;;4.70;99.90;4.60;101859.00;;;;4897171;28;117328;-72
2024/01/27 05:11:52;;;;;;;1.83;1.13;;;4.70;99.90;4.60;101872.00;;;;4902279;28;87718;-69
2024/01/27 05:14:18;;;;;;;0.80;0.70;;;4.80;99.90;4.60;101862.00;;;;4898471;28;87192;-72
2024/01/27 05:16:44;;;;;;;2.83;1.20;;;5.70;99.90;4.60;101855.00;;;;4898079;28;88107;-71
2024/01/27 05:19:11;;;;;;;0.97;0.77;;;4.80;99.90;4.60;101864.00;;;;4902137;28;118335;-73
2024/01/27 05:21:38;;;;;;;3.63;1.10;;;5.60;99.90;4.60;101862.00;;;;4899608;28;91919;-70
2024/01/27 05:24:04;;;;;;;1.00;0.77;;;5.40;99.90;4.60;101858.00;;;;4917158;28;88276;-70
2024/01/27 05:26:30;;;;;;;2.50;1.20;;;4.80;99.90;4.60;101853.00;;;;4903535;28;88076;-69
2024/01/27 05:28:56;;;;;;;1.60;1.07;;;4.80;99.90;4.60;101879.00;;;;4915864;28;88103;-68
2024/01/27 05:31:21;;;;;;;3.70;1.23;;;4.80;99.90;4.60;101871.00;;;;4898489;28;88823;-68
2024/01/27 05:33:47;;;;;;;3.57;1.43;;;4.70;99.90;4.60;101874.00;;;;4896442;28;110625;-70
2024/01/27 05:36:13;;;;;;;1.33;0.77;;;5.80;99.90;4.60;101862.00;;;;4899040;28;108301;-68
2024/01/27 05:38:39;;;;;;;8.47;1.17;;;4.70;99.90;4.60;101865.00;;;;4896750;28;88202;-71
2024/01/27 05:41:05;;;;;;;3.13;1.10;;;4.70;99.90;4.60;101869.00;;;;4897605;28;116527;-69
2024/01/27 05:43:31;;;;;;;4.40;1.83;;;4.70;99.90;4.50;101870.00;;;;4896623;28;87980;-70
2024/01/27 05:45:57;;;;;;;2.23;1.83;;;4.70;99.90;4.50;101865.00;;;;4897293;28;92236;-72
2024/01/27 05:48:22;;;;;;;5.10;1.40;;;5.40;99.90;4.40;101885.00;;;;4896052;28;118088;-72
2024/01/27 05:50:59;;;;;;;6.53;1.47;;;4.70;99.90;4.40;101870.00;;;;4894961;28;117833;-71
2024/01/27 05:53:25;;;;;;;4.00;1.20;;;4.60;99.90;4.30;101884.00;;;;4893290;28;87629;-70
2024/01/27 05:55:52;;;;;;;1.47;0.90;;;4.60;99.90;4.30;101899.00;;;;4871671;28;88260;-70
2024/01/27 05:58:20;;;;;;;6.23;1.50;;;5.40;99.90;4.20;101891.00;;;;4901417;28;87785;-70
2024/01/27 06:00:47;;;;;;;3.50;1.13;;;4.40;99.90;4.20;101893.00;;;;4893191;28;88883;-70
2024/01/27 06:03:12;;;;;;;8.10;1.77;;;4.70;99.90;4.10;101880.00;;;;4893609;28;99736;-68
2024/01/27 06:05:38;;;;;;;5.47;1.40;;;4.40;99.90;4.10;101874.00;;;;4895017;28;108815;-68
2024/01/27 06:08:07;;;;;;;5.83;1.57;;;4.30;99.90;4.00;101888.00;;;;4889944;28;108599;-68
2024/01/27 06:10:33;;;;;;;1.33;0.83;;;4.40;99.90;4.00;101886.00;;;;4894782;28;89045;-68
2024/01/27 06:12:59;;;;;;;4.77;1.50;;;4.20;99.90;4.00;101884.00;;;;4893767;28;110908;-71
2024/01/27 06:15:25;;;;;;;3.03;1.00;;;5.20;99.90;3.90;101894.00;;;;4897957;28;88052;-69
2024/01/27 06:17:50;;;;;;;7.07;1.47;;;4.80;99.90;3.90;101884.00;;;;4892741;28;89034;-68
2024/01/27 06:20:19;;;;;;;2.13;1.10;;;4.20;99.90;3.90;101890.00;;;;4893223;28;115979;-70
2024/01/27 06:22:45;;;;;;;3.03;1.60;;;4.20;99.90;3.90;101903.00;;;;4895919;28;88057;-68
2024/01/27 06:25:10;;;;;;;7.93;1.23;;;4.10;99.90;3.90;101887.00;;;;4891991;28;108906;-69
2024/01/27 06:27:41;;;;;;;2.50;1.37;;;4.10;99.90;3.90;101898.00;;;;4894288;28;87449;-70
2024/01/27 06:30:09;;;;;;;3.80;1.30;;;4.00;99.90;3.90;101900.00;;;;4895215;28;88044;-71
2024/01/27 06:32:35;;;;;;;2.00;0.83;;;4.10;99.90;3.90;101910.00;;;;4894150;28;88111;-73
2024/01/27 06:35:00;;;;;;;6.53;1.93;;;4.10;99.90;3.90;101915.00;;;;4896728;28;107410;-69
2024/01/27 06:37:26;;;;;;;1.70;0.93;;;4.10;99.90;3.90;101917.00;;;;4894779;28;117891;-71
2024/01/27 06:39:52;;;;;;;4.53;1.37;;;4.00;99.90;3.90;101910.00;;;;4896503;28;101924;-68
2024/01/27 06:42:17;;;;;;;3.13;0.90;;;4.10;99.90;3.90;101928.00;;;;4894426;28;110646;-70
2024/01/27 06:44:43;;;;;;;7.73;2.07;;;4.10;99.90;3.80;101934.00;;;;4891981;28;88044;-69
2024/01/27 06:47:09;;;;;;;8.23;1.30;;;4.90;99.90;3.80;101926.00;;;;4891876;28;113102;-69
2024/01/27 06:49:34;;;;;;;5.20;1.33;;;4.10;99.90;3.80;101939.00;;;;4895279;28;117208;-70
2024/01/27 06:52:00;;;;;;;3.23;1.40;;;4.00;99.90;3.80;101941.00;;;;4894958;28;109730;-70
2024/01/27 06:54:26;;;;;;;1.70;1.10;;;4.70;99.90;3.80;101932.00;;;;4920838;28;87749;-68
2024/01/27 06:56:52;;;;;;;1.17;0.80;;;4.00;99.90;3.80;101935.00;;;;4913297;28;119065;-72
2024/01/27 06:59:17;;;;;;;2.60;0.70;;;4.00;99.90;3.80;101951.00;;;;4904744;28;114966;-70
2024/01/27 07:01:49;;;;;;;1.70;1.10;;;4.00;99.90;3.80;101945.00;;;;4894438;28;91540;-69
2024/01/27 07:04:15;;;;;;;2.07;0.90;;;4.00;99.90;3.90;101955.00;;;;4896638;28;87997;-69
2024/01/27 07:06:41;;;;;;;3.23;1.20;;;4.00;99.90;3.90;101940.00;;;;4892503;28;118632;-71
2024/01/27 07:09:06;;;;;;;4.70;0.90;;;4.10;99.90;3.90;101943.00;;;;4894065;28;114990;-69
2024/01/27 07:11:33;;;;;;;2.47;1.10;;;4.70;99.90;3.90;101955.00;;;;4891388;28;100043;-70
2024/01/27 07:13:59;;;;;;;3.27;1.80;;;4.10;99.90;4.00;101960.00;;;;4906124;28;88321;-70
2024/01/27 07:16:24;;;;;;;7.17;1.77;;;4.20;99.90;4.00;101972.00;;;;4896187;28;115037;-70
2024/01/27 07:18:51;;;;;;;4.07;1.30;;;4.70;99.90;4.10;101963.00;;;;4890992;28;116651;-69
2024/01/27 07:21:17;;;;;;;5.33;1.67;;;4.20;99.90;4.10;101980.00;;;;4892598;28;87552;-71
2024/01/27 07:23:43;;;;;;;4.80;1.23;;;4.30;99.90;4.20;101991.00;;;;4901922;28;89034;-68
2024/01/27 07:26:12;;;;;;;8.47;2.57;;;4.40;99.90;4.20;101989.00;;;;4893464;28;102775;-69
2024/01/27 07:28:38;;;;;;;3.40;1.67;;;5.40;99.90;4.30;101990.00;;;;4898636;28;109821;-68
2024/01/27 07:31:05;;;;;;;4.87;1.27;;;4.40;99.90;4.30;102006.00;;;;4915306;28;93822;-68
2024/01/27 07:33:31;;;;;;;9.70;2.03;;;4.50;99.90;4.30;102004.00;;;;4896453;28;88014;-68
2024/01/27 07:35:57;;;;;;;6.73;1.50;;;4.50;99.90;4.40;102008.00;;;;4895559;28;118671;-68
2024/01/27 07:38:23;;;;;;;1.10;1.00;;;4.50;99.90;4.40;102014.00;;;;4897784;28;89075;-70
2024/01/27 07:40:48;;;;;;;6.43;1.53;;;4.50;99.90;4.50;102019.00;;;;4895954;28;110580;-70
2024/01/27 07:43:14;;;;;;;12.73;2.13;;;5.40;99.90;4.50;102012.00;;;;4895568;28;109149;-68
2024/01/27 07:45:40;;;;;;;4.63;1.63;;;4.60;99.90;4.50;102019.00;;;;4893119;28;116916;-68
2024/01/27 07:48:07;;;;;;;4.23;1.10;;;4.60;99.90;4.50;102032.00;;;;4894312;28;89662;-68
2024/01/27 07:50:33;;;;;;;3.07;1.63;;;4.70;99.90;4.60;102047.00;;;;4906889;28;87775;-71
2024/01/27 07:52:59;;;;;;;2.30;1.20;;;5.00;99.90;4.60;102039.00;;;;4893362;28;89185;-71
2024/01/27 07:55:24;;;;;;;2.90;1.57;;;4.80;99.90;4.60;102048.00;;;;4893280;28;116414;-69
2024/01/27 07:57:50;;;;;;;5.10;1.53;;;4.80;99.90;4.60;102047.00;;;;4893366;28;115332;-72
2024/01/27 08:00:16;;;;;;;3.67;1.60;;;4.80;99.90;4.70;102046.00;;;;4895205;28;110672;-72
2024/01/27 08:02:41;;;;;;;9.33;1.87;;;4.90;99.90;4.70;102058.00;;;;4895453;28;97137;-71
2024/01/27 08:05:08;;;;;;;4.83;1.67;;;5.50;99.90;4.70;102068.00;;;;4891818;28;115956;-70
2024/01/27 08:07:34;;;;;;;6.17;2.17;;;4.90;99.90;4.70;102075.00;;;;4893830;28;88877;-70
2024/01/27 08:10:00;;;;;;;3.40;1.57;;;5.20;99.90;4.80;102070.00;;;;4905157;28;111497;-70
2024/01/27 08:12:25;;;;;;;2.43;1.33;;;5.80;99.90;4.80;102080.00;;;;4896535;28;99249;-68
2024/01/27 08:14:51;;;;;;;3.53;1.20;;;4.90;99.90;4.80;102084.00;;;;4909517;28;88143;-68
2024/01/27 08:17:17;;;;;;;7.43;1.53;;;5.00;99.90;4.80;102090.00;;;;4889200;28;117438;-69
2024/01/27 08:19:42;;;;;;;2.73;1.20;;;5.10;99.90;4.80;102091.00;;;;4894135;28;110963;-68
2024/01/27 08:22:09;;;;;;;6.73;2.17;;;5.00;99.90;4.90;102091.00;;;;4897752;28;108806;-69
2024/01/27 08:24:35;;;;;;;4.47;1.87;;;6.10;99.90;4.90;102098.00;;;;4895076;28;88380;-68
2024/01/27 08:27:01;;;;;;;4.97;2.00;;;5.00;99.90;4.90;102106.00;;;;4899560;28;88273;-69
2024/01/27 08:29:27;;;;;;;3.37;1.27;;;5.40;99.90;4.90;102104.00;;;;4894611;28;87295;-68
2024/01/27 08:31:52;;;;;;;3.57;1.90;;;5.10;99.90;4.90;102108.00;;;;4895105;28;108781;-68
2024/01/27 08:34:18;;;;;;;3.70;1.67;;;5.10;99.90;4.90;102097.00;;;;4892864;28;115714;-70
2024/01/27 08:36:44;;;;;;;5.57;1.70;;;5.20;99.90;4.90;102101.00;;;;4896936;28;88747;-68
2024/01/27 08:39:12;;;;;;;5.43;2.20;;;5.80;99.90;5.00;102095.00;;;;4891116;28;109848;-70
2024/01/27 08:41:37;;;;;;;5.03;1.53;;;5.00;99.90;5.00;102107.00;;;;4906592;28;88106;-72
2024/01/27 08:44:03;;;;;;;2.10;1.40;;;5.20;99.90;5.00;102106.00;;;;4889879;28;117662;-68
2024/01/27 08:46:29;;;;;;;6.10;2.17;;;5.20;99.90;5.00;102102.00;;;;4903398;28;104971;-70
2024/01/27 08:48:55;;;;;;;6.13;2.03;;;5.20;99.90;5.00;102115.00;;;;4895768;28;109103;-70
2024/01/27 08:51:20;;;;;;;3.00;1.37;;;5.20;99.90;5.10;102095.00;;;;4892420;28;108225;-70
2024/01/27 08:53:48;;;;;;;4.10;1.47;;;5.30;99.90;5.10;102103.00;;;;4895569;28;116122;-71
2024/01/27 08:56:17;;;;;;;1.97;1.30;;;5.70;99.90;5.10;102115.00;;;;4893576;28;88353;-71
2024/01/27 08:58:43;;;;;;;2.57;1.27;;;5.30;99.90;5.10;102119.00;;;;4896591;28;87765;-70
2024/01/27 09:01:12;;;;;;;7.13;1.80;;;5.20;99.90;5.10;102129.00;;;;4893730;28;101536;-70
2024/01/27 09:03:40;;;;;;;5.90;1.43;;;5.60;99.90;5.20;102130.00;;;;4897235;28;89136;-71
2024/01/27 09:06:07;;;;;;;2.73;1.50;;;5.40;99.90;5.20;102136.00;;;;4909618;28;88578;-70
2024/01/27 09:08:34;;;;;;;9.37;2.40;;;5.40;99.90;5.20;102141.00;;;;4895938;28;88342;-72
2024/01/27 09:11:01;;;;;;;10.40;1.57;;;5.40;99.90;5.20;102138.00;;;;4899231;28;88276;-72
2024/01/27 09:13:27;;;;;;;4.73;2.23;;;6.10;99.90;5.20;102146.00;;;;4894515;28;108782;-70
2024/01/27 09:15:52;;;;;;;8.10;1.37;;;5.40;99.90;5.20;102136.00;;;;4896010;28;117901;-69
2024/01/27 09:18:18;;;;;;;8.57;2.57;;;5.30;99.90;5.20;102149.00;;;;4896659;28;110133;-69
2024/01/27 09:20:44;;;;;;;7.27;1.87;;;6.30;99.90;5.30;102139.00;;;;4900991;28;88002;-69
2024/01/27 09:23:10;;;;;;;6.70;1.80;;;5.40;99.90;5.30;102153.00;;;;4902933;28;90787;-69
2024/01/27 09:25:35;;;;;;;5.33;1.83;;;5.40;99.90;5.30;102151.00;;;;4903843;28;115938;-69
2024/01/27 09:28:01;;;;;;;6.97;1.97;;;5.50;99.90;5.30;102151.00;;;;4897396;28;87917;-69
2024/01/27 09:30:27;;;;;;;4.13;2.53;;;5.50;99.90;5.30;102146.00;;;;4898049;28;108856;-69
2024/01/27 09:32:53;;;;;;;3.50;1.70;;;5.70;99.90;5.30;102135.00;;;;4896145;28;106449;-70
2024/01/27 09:35:20;;;;;;;6.97;1.53;;;5.50;99.90;5.30;102138.00;;;;4909411;28;115702;-69
2024/01/27 09:37:46;;;;;;;6.13;1.93;;;5.50;99.90;5.30;102148.00;;;;4895747;28;88025;-69
2024/01/27 09:40:12;;;;;;;4.00;1.47;;;5.50;99.90;5.30;102156.00;;;;4899507;28;87921;-70
2024/01/27 09:42:39;;;;;;;9.17;2.30;;;5.60;99.90;5.30;102147.00;;;;4904158;28;105002;-71
2024/01/27 09:45:05;;;;;;;3.07;1.53;;;5.70;99.90;5.40;102156.00;;;;4892710;28;87997;-68
2024/01/27 09:47:31;;;;;;;3.90;1.27;;;5.60;99.90;5.40;102155.00;;;;4911197;28;101288;-69
2024/01/27 09:49:57;;;;;;;3.53;2.40;;;5.60;99.90;5.40;102157.00;;;;4913223;28;99820;-69
2024/01/27 09:52:24;;;;;;;5.33;1.83;;;5.50;99.90;5.40;102172.00;;;;4896177;28;99539;-69
2024/01/27 09:54:49;;;;;;;3.17;1.77;;;5.70;99.90;5.40;102161.00;;;;4908321;28;87810;-68
2024/01/27 09:57:16;;;;;;;4.03;2.23;;;5.90;99.90;5.40;102169.00;;;;4892127;28;110388;-69
2024/01/27 09:59:44;;;;;;;15.97;1.83;;;6.20;99.90;5.40;102165.00;;;;4895400;28;107343;-69
2024/01/27 10:02:11;;;;;;;4.17;1.33;;;5.50;99.90;5.40;102168.00;;;;4898109;28;89033;-70
2024/01/27 10:04:41;;;;;;;3.77;2.47;;;5.80;99.90;5.50;102171.00;;;;4896873;28;88304;-70
2024/01/27 10:07:06;;;;;;;3.63;1.77;;;6.50;99.90;5.50;102173.00;;;;4898460;28;88620;-71
2024/01/27 10:09:32;;;;;;;1.50;0.87;;;5.70;99.90;5.50;102159.00;;;;4898988;28;107806;-68
2024/01/27 10:12:01;;;;;;;8.50;2.33;;;5.70;99.90;5.50;102153.00;;;;4896738;28;116700;-71
2024/01/27 10:14:41;;;;;;;7.20;2.03;;;6.40;99.90;5.60;102167.00;;;;4898242;28;100762;-71
2024/01/27 10:17:12;;;;;;;5.17;1.73;;;5.70;99.90;5.60;102158.00;;;;4897129;28;87853;-69
2024/01/27 10:19:38;;;;;;;6.90;2.73;;;6.40;99.90;5.60;102164.00;;;;4899060;28;87966;-69
2024/01/27 10:22:04;;;;;;;6.23;2.23;;;5.70;99.90;5.70;102162.00;;;;4900403;28;88920;-68
2024/01/27 10:24:33;;;;;;;2.33;1.63;;;6.70;99.90;5.70;102168.00;;;;4896044;28;88821;-69
2024/01/27 10:27:03;;;;;;;3.17;2.03;;;5.90;99.90;5.80;102171.00;;;;4911058;28;87859;-70
2024/01/27 10:29:29;;;;;;;4.63;2.10;;;5.90;99.90;5.80;102163.00;;;;4899991;28;87806;-71
2024/01/27 10:31:55;;;;;;;4.70;1.90;;;5.90;99.90;5.90;102165.00;;;;4898781;28;87723;-69
2024/01/27 10:34:21;;;;;;;8.97;2.57;;;6.00;99.90;5.90;102154.00;;;;4895235;28;101872;-69
2024/01/27 10:36:46;;;;;;;10.67;2.43;;;6.00;99.90;5.90;102154.00;;;;4896056;28;109169;-70
2024/01/27 10:39:22;;;;;;;4.07;2.20;;;6.70;99.90;6.00;102159.00;;;;4904070;28;108869;-69
2024/01/27 10:41:49;;;;;;;3.60;1.87;;;6.80;99.90;6.00;102163.00;;;;4898685;28;88088;-71
2024/01/27 10:44:17;;;;;;;5.90;2.33;;;6.20;99.90;6.10;102161.00;;;;4896344;28;87938;-72
2024/01/27 10:46:48;;;;;;;8.90;2.90;;;6.30;99.90;6.20;102160.00;;;;4896541;28;88027;-69
2024/01/27 10:49:16;;;;;;;8.07;2.53;;;6.50;99.90;6.20;102165.00;;;;4896699;28;88170;-71
2024/01/27 10:51:56;;;;;;;10.20;2.27;;;6.30;99.90;6.30;102177.00;;;;4896821;28;89221;-71